Rankings de siempre
Mejores tiempos personales válidos de equipo a través de todos los eventos y temporadas. Cada equipo aparece una vez por división.
Busca por nombre y abre la página donde está clasificado este récord de división.
135,116 equipos clasificados
| Pos. | Pos. AG | Equipo | Nacionalidad | Categoría de edad | TiempoMejor tiempo | Diferencia |
|---|---|---|---|---|---|---|
| 133626 | #18030 | Karan Bajla & Reshma BajlaIND · X 40-44 · AG #18030 | IND | X 40-44 | 2:12:11 | +82:58 |
| 133627 | #20444 | Jack Leen & Lucia AntoniouX 25-29 · AG #20444 | -- | X 25-29 | 2:12:12 | +82:59 |
| 133628 | #20445 | Nandhakumaran Jayaram & Mehamudha Afreen AIND · X 25-29 · AG #20445 | IND | X 25-29 | 2:12:12 | +82:59 |
| 133629 | #18031 | Madhuraa Bhaavsaar & Amol BhaavsaarIND · X 40-44 · AG #18031 | IND | X 40-44 | 2:12:12 | +82:59 |
| 133630 | #9157 | Joki Yoshida & Panisara Na NakornX 16-24 · AG #9157 | -- | X 16-24 | 2:12:12 | +82:59 |
| 133631 | #20446 | Tyler Benbow & Mika McCulloughUSA · X 25-29 · AG #20446 | USA | X 25-29 | 2:12:13 | +83:00 |
| 133632 | #20447 | Shane Landsman & Madison MeyerRSA · X 25-29 · AG #20447 | RSA | X 25-29 | 2:12:13 | +83:00 |
| 133633 | #16729 | Aishwarya Deshmukh & Bhavesh AggarwalIND · X 35-39 · AG #16729 | IND | X 35-39 | 2:12:13 | +83:00 |
| 133634 | #16730 | ANGAD SINGH BRAR & Jaspal KaurIND · X 35-39 · AG #16730 | IND | X 35-39 | 2:12:13 | +83:00 |
| 133635 | #46563 | Madeleine Rostollan & Christian FloresUSA · X 30-34 · AG #46563 | USA | X 30-34 | 2:12:13 | +83:00 |
| 133636 | #18032 | Wendy Short & Lucas ShortGBR · X 40-44 · AG #18032 | GBR | X 40-44 | 2:12:14 | +83:01 |
| 133637 | #3176 | Didier Dubosc & Jennifer DuboscFRA · X 50-54 · AG #3176 | FRA | X 50-54 | 2:12:15 | +83:02 |
| 133638 | #46564 | Dwayne Nelson & Bronte DeweeverGBR · X 30-34 · AG #46564 | GBR | X 30-34 | 2:12:16 | +83:03 |
| 133639 | #46565 | Wan Ting Li & Bax LiSIN · X 30-34 · AG #46565 | SIN | X 30-34 | 2:12:16 | +83:03 |
| 133640 | #46566 | Rashmi Shenoy & Naveen KushalappaIND · X 30-34 · AG #46566 | IND | X 30-34 | 2:12:16 | +83:03 |
| 133641 | #9158 | Chi Hei Haylie Wong & Yung Yui LeeHKG · X 16-24 · AG #9158 | HKG | X 16-24 | 2:12:16 | +83:03 |
| 133642 | #18033 | Mariel Sarahí Gutierrez Vargas & Raúl Hernández GómezMEX · X 40-44 · AG #18033 | MEX | X 40-44 | 2:12:17 | +83:04 |
| 133643 | #582 | marc pedler & Danielle SegslGBR · X 55-59 · AG #582 | GBR | X 55-59 | 2:12:17 | +83:04 |
| 133644 | #252 | Gerda Remmers & Joep PeetersNED · X 60-64 · AG #252 | NED | X 60-64 | 2:12:17 | +83:04 |
| 133645 | #18034 | Kin Chun Cheung & Kit TamHKG · X 40-44 · AG #18034 | HKG | X 40-44 | 2:12:17 | +83:04 |
| 133646 | #16731 | Thomas Pitt & Jennifer SkyeGBR · X 35-39 · AG #16731 | GBR | X 35-39 | 2:12:17 | +83:04 |
| 133647 | #16732 | Kavish P & Khushboo PIND · X 35-39 · AG #16732 | IND | X 35-39 | 2:12:17 | +83:04 |
| 133648 | #20448 | Chelsea Sawlani & Kartik SolankiIND · X 25-29 · AG #20448 | IND | X 25-29 | 2:12:18 | +83:05 |
| 133649 | -- | Matthew Walker & Catriona AdamsGBR · X XU29 | GBR | X XU29 | 2:12:18 | +83:05 |
| 133650 | #46567 | Joshua Alferez & Jennifer MacphersonCAN · X 30-34 · AG #46567 | CAN | X 30-34 | 2:12:19 | +83:06 |
Página 5,346 de 5,405